< < Back
Terminal Aerodrome Forecast


Current Version              Previous Versions:   1  2  3  4  5  6  7  8  9  

Terminal Aerodrome Forecast

727
FTUS42 KFFC 040524
TAFCSG
TAF
KCSG 040524Z 0406/0506 32009KT P6SM FEW050 SCT100
     FM041000 32005KT P6SM FEW100
     FM041400 30010G18KT P6SM SKC
     FM042000 30012G20KT P6SM SKC
     FM050000 29006KT P6SM SKC=

Latest METAR

103
SAUS70 KWBC 041000 RRA
MTRCSG
METAR KCSG 040951Z AUTO 35005KT 10SM CLR 14/11 A2984 RMK AO2 SLP100
T01440111


USA.gov is the U.S. government's official web portal to all federal, state and local government web resources and services.